Time;durP1;ratioP1;P1;durP2;ratioP2;P2;SDS_P1;SDS_P2;PMS_P1;PMS_P2;Temp;Humidity;BMP_temperature;BMP_pressure;BME280_temperature;BME280_humidity;BME280_pressure;Samples;Min_cycle;Max_cycle;Signal;HPM_P1;HPM_P2
2022/01/04 00:01:02;;;;;;;280.00;178.75;;;128.90;2252.80;;;;;;4976319;28;20036;-85
2022/01/04 00:03:28;;;;;;;288.95;179.18;;;128.90;2252.80;;;;;;4959095;28;20454;-84
2022/01/04 00:05:53;;;;;;;223.02;143.65;;;128.90;2252.80;;;;;;4959244;28;20131;-83
2022/01/04 00:08:20;;;;;;;214.63;137.07;;;128.80;2252.80;;;;;;4958901;28;20022;-82
2022/01/04 00:10:46;;;;;;;253.57;156.57;;;128.90;2252.80;;;;;;4959305;28;20039;-82
2022/01/04 00:13:24;;;;;;;269.80;169.90;;;128.80;2252.80;;;;;;4958286;28;20054;-82
2022/01/04 00:15:54;;;;;;;249.30;158.75;;;128.70;2252.80;;;;;;4958939;28;20019;-83
2022/01/04 00:18:21;;;;;;;243.00;152.82;;;128.80;2252.80;;;;;;4958965;28;20030;-87
2022/01/04 00:20:48;;;;;;;261.50;160.90;;;128.60;2252.80;;;;;;4958935;28;20037;-85
2022/01/04 00:23:15;;;;;;;238.45;140.23;;;128.20;2252.80;;;;;;4958922;28;20034;-84
2022/01/04 00:25:41;;;;;;;182.80;106.03;;;128.20;2252.80;;;;;;4958924;28;20022;-85
2022/01/04 00:28:07;;;;;;;88.30;58.92;;;128.10;2252.80;;;;;;4958767;28;20359;-87
2022/01/04 00:30:38;;;;;;;98.57;61.17;;;128.00;2252.80;;;;;;4958644;28;20031;-87
2022/01/04 00:33:06;;;;;;;130.25;78.03;;;128.40;2252.80;;;;;;4958634;28;20026;-84
2022/01/04 00:35:32;;;;;;;229.80;138.18;;;128.20;2252.80;;;;;;4959023;28;20455;-88
2022/01/04 00:37:59;;;;;;;247.10;143.65;;;128.20;2252.80;;;;;;4958235;28;20019;-85
2022/01/04 00:40:26;;;;;;;232.07;143.75;;;128.40;2252.80;;;;;;4958363;28;20026;-81
2022/01/04 00:42:55;;;;;;;256.70;155.85;;;128.30;2252.80;;;;;;4958497;28;20019;-85
2022/01/04 00:45:22;;;;;;;226.45;141.20;;;128.30;2252.80;;;;;;4958421;28;20108;-84
2022/01/04 00:50:36;;;;;;;198.30;121.53;;;128.20;2252.80;;;;;;4945209;28;20478;-86
2022/01/04 00:53:03;;;;;;;310.65;181.90;;;128.20;2252.80;;;;;;4958099;28;20023;-86
2022/01/04 00:55:33;;;;;;;296.80;174.60;;;128.00;2252.80;;;;;;4958529;28;20050;-87
2022/01/04 00:58:01;;;;;;;273.55;170.68;;;128.20;2252.80;;;;;;4957541;28;20035;-87
2022/01/04 01:00:27;;;;;;;262.95;157.40;;;128.20;2252.80;;;;;;4975275;28;20031;-81
2022/01/04 01:02:53;;;;;;;253.70;161.32;;;128.20;2252.80;;;;;;4975549;28;20029;-85
2022/01/04 01:05:22;;;;;;;253.23;154.75;;;128.10;2252.80;;;;;;4958461;28;20023;-86
2022/01/04 01:07:48;;;;;;;209.70;131.13;;;128.00;2252.80;;;;;;4958264;28;20027;-87
2022/01/04 01:12:41;;;;;;;252.70;156.93;;;128.10;2252.80;;;;;;4993107;28;20035;-84
2022/01/04 01:15:08;;;;;;;213.45;130.43;;;128.20;2252.80;;;;;;4966891;28;20030;-84
2022/01/04 01:17:34;;;;;;;154.82;97.93;;;128.20;2252.80;;;;;;4961695;28;20459;-87
2022/01/04 01:20:01;;;;;;;113.13;72.75;;;103.20;2227.20;;;;;;4975366;28;20351;-84
2022/01/04 01:22:27;;;;;;;105.18;66.05;;;128.00;2252.80;;;;;;4958294;28;20459;-85
2022/01/04 01:24:53;;;;;;;103.38;65.68;;;103.20;2227.20;;;;;;4958146;28;20019;-87
2022/01/04 01:27:18;;;;;;;123.20;78.53;;;103.30;2227.20;;;;;;4975342;28;20022;-84
2022/01/04 01:29:44;;;;;;;122.25;75.97;;;128.00;2252.80;;;;;;4958274;28;20030;-86
2022/01/04 01:32:10;;;;;;;106.55;69.10;;;103.20;2227.20;;;;;;4958163;28;20126;-86
2022/01/04 01:34:36;;;;;;;159.05;98.28;;;128.00;2252.80;;;;;;4958254;28;20069;-88
2022/01/04 01:37:02;;;;;;;143.93;88.22;;;103.30;2227.20;;;;;;4958207;28;20121;-85
2022/01/04 01:39:28;;;;;;;170.88;102.60;;;128.00;2252.80;;;;;;4958293;28;20029;-85
2022/01/04 01:41:54;;;;;;;155.30;99.07;;;128.00;2252.80;;;;;;4958045;28;20370;-86
2022/01/04 01:44:21;;;;;;;119.93;75.95;;;128.10;2252.80;;;;;;4958033;28;20106;-85
2022/01/04 01:46:47;;;;;;;151.25;83.70;;;128.20;2252.80;;;;;;4958151;28;20454;-84
2022/01/04 01:49:13;;;;;;;135.15;76.85;;;103.30;2227.20;;;;;;4957906;28;20034;-86
2022/01/04 01:51:39;;;;;;;108.78;67.45;;;103.20;2227.20;;;;;;4957816;28;20038;-85
2022/01/04 01:54:05;;;;;;;95.78;60.08;;;102.90;2227.20;;;;;;4957893;28;20224;-86
2022/01/04 01:56:31;;;;;;;80.28;49.72;;;102.90;2227.20;;;;;;4957765;28;20344;-87
2022/01/04 01:58:58;;;;;;;78.90;48.15;;;102.60;2227.20;;;;;;4958513;28;20062;-84
2022/01/04 02:01:24;;;;;;;76.85;46.88;;;102.80;2227.20;;;;;;4961397;28;20033;-85
2022/01/04 02:03:50;;;;;;;92.60;51.35;;;102.80;2227.20;;;;;;4978252;28;20019;-85
2022/01/04 02:06:17;;;;;;;77.50;48.40;;;102.90;2227.20;;;;;;4961360;28;20058;-84
2022/01/04 02:08:43;;;;;;;78.10;48.55;;;102.80;2227.20;;;;;;4961401;28;20027;-86
2022/01/04 02:11:09;;;;;;;74.57;49.40;;;102.90;2227.20;;;;;;4960954;28;20027;-84
2022/01/04 02:13:35;;;;;;;96.95;58.90;;;103.00;2227.20;;;;;;4961478;28;20023;-84
2022/01/04 02:16:02;;;;;;;109.10;69.60;;;103.00;2227.20;;;;;;4961177;28;20034;-86
2022/01/04 02:18:28;;;;;;;131.07;81.20;;;103.10;2227.20;;;;;;4961488;28;20394;-84
2022/01/04 02:20:55;;;;;;;105.72;64.97;;;103.00;2227.20;;;;;;4961095;28;20035;-86
2022/01/04 02:23:21;;;;;;;101.50;63.00;;;103.20;2227.20;;;;;;4961194;28;20022;-86
2022/01/04 02:25:48;;;;;;;86.40;54.28;;;103.30;2227.20;;;;;;4960919;28;20023;-84
2022/01/04 02:28:18;;;;;;;73.15;47.42;;;102.90;2227.20;;;;;;4961034;28;20050;-84
2022/01/04 02:30:44;;;;;;;91.45;57.05;;;102.90;2227.20;;;;;;4960761;28;20455;-85
2022/01/04 02:33:10;;;;;;;89.88;55.15;;;102.90;2227.20;;;;;;4961136;28;20121;-87
2022/01/04 02:35:36;;;;;;;87.07;54.97;;;102.80;2227.20;;;;;;4960739;28;20027;-87
2022/01/04 02:38:03;;;;;;;78.00;49.35;;;102.80;2227.20;;;;;;4960867;28;20054;-86
2022/01/04 02:40:31;;;;;;;72.72;45.25;;;102.60;2227.20;;;;;;4960961;28;20109;-88
2022/01/04 02:42:57;;;;;;;69.93;43.90;;;102.60;2227.20;;;;;;4960829;28;20023;-86
2022/01/04 02:45:23;;;;;;;62.63;41.05;;;102.50;2227.20;;;;;;4960752;28;20031;-85
2022/01/04 02:47:49;;;;;;;58.10;37.85;;;102.50;2227.20;;;;;;4960749;28;20023;-85
2022/01/04 02:50:15;;;;;;;63.75;39.53;;;102.60;2227.20;;;;;;4960635;28;20029;-86
2022/01/04 02:52:41;;;;;;;67.97;45.17;;;102.50;2227.20;;;;;;4960234;28;20121;-87
2022/01/04 02:55:10;;;;;;;76.50;45.83;;;102.50;2227.20;;;;;;4960792;28;20027;-87
2022/01/04 02:57:36;;;;;;;68.97;42.40;;;102.50;2227.20;;;;;;4960521;28;20073;-85
2022/01/04 03:00:05;;;;;;;68.05;43.72;;;102.50;2227.20;;;;;;4960577;28;20026;-88
2022/01/04 03:02:31;;;;;;;94.70;59.72;;;102.60;2227.20;;;;;;4960625;28;20054;-86
2022/01/04 03:04:57;;;;;;;81.70;54.28;;;77.70;2227.20;;;;;;4960608;28;20023;-86
2022/01/04 03:07:23;;;;;;;91.25;56.22;;;77.60;2227.20;;;;;;4960556;28;20034;-85
2022/01/04 03:09:48;;;;;;;82.55;52.85;;;77.50;2227.20;;;;;;4959862;28;20122;-87
2022/01/04 03:12:14;;;;;;;108.63;65.93;;;77.70;2227.20;;;;;;4960177;28;20498;-86
2022/01/04 03:14:40;;;;;;;104.15;63.95;;;102.40;2227.20;;;;;;4960679;28;20081;-86
2022/01/04 03:17:06;;;;;;;115.13;69.97;;;102.50;2227.20;;;;;;4960382;28;20027;-85
2022/01/04 03:19:32;;;;;;;107.32;64.82;;;102.50;2227.20;;;;;;4960080;28;20105;-86
2022/01/04 03:21:58;;;;;;;97.68;58.35;;;102.60;2227.20;;;;;;4960238;28;20025;-85
2022/01/04 03:24:25;;;;;;;107.28;67.10;;;102.50;2227.20;;;;;;4960194;28;20026;-86
2022/01/04 03:26:50;;;;;;;118.40;74.20;;;102.60;2227.20;;;;;;4959783;28;20058;-86
2022/01/04 03:29:17;;;;;;;130.27;78.93;;;77.70;2227.20;;;;;;4960076;28;20042;-86
2022/01/04 03:31:44;;;;;;;100.78;63.60;;;77.30;2227.20;;;;;;4959886;28;20110;-84
2022/01/04 03:34:10;;;;;;;101.95;61.53;;;77.20;2227.20;;;;;;4959820;28;20023;-88
2022/01/04 03:36:36;;;;;;;101.72;60.50;;;77.10;2227.20;;;;;;4959867;28;20459;-89
2022/01/04 03:39:06;;;;;;;97.40;59.50;;;77.30;2227.20;;;;;;4959931;28;20022;-87
2022/01/04 03:41:36;;;;;;;101.75;61.90;;;77.60;2227.20;;;;;;4959988;28;20034;-86
2022/01/04 03:44:02;;;;;;;95.13;58.33;;;77.60;2227.20;;;;;;4959950;28;20019;-90
2022/01/04 03:46:28;;;;;;;102.43;61.88;;;102.40;2227.20;;;;;;4959719;28;20019;-85
2022/01/04 03:48:54;;;;;;;105.00;64.03;;;102.40;2227.20;;;;;;4959679;28;20077;-87
2022/01/04 03:51:19;;;;;;;103.88;60.05;;;102.50;2227.20;;;;;;4959641;28;20173;-87
2022/01/04 03:53:45;;;;;;;84.40;51.13;;;77.30;2227.20;;;;;;4959767;28;20042;-85
2022/01/04 03:56:11;;;;;;;75.40;47.85;;;77.10;2227.20;;;;;;4959526;28;20026;-88
2022/01/04 03:58:37;;;;;;;61.33;37.03;;;77.30;2227.20;;;;;;4959446;28;20022;-88
2022/01/04 04:01:03;;;;;;;65.25;41.00;;;77.00;2227.20;;;;;;4959382;28;20158;-85
2022/01/04 04:03:30;;;;;;;64.10;40.95;;;77.00;2227.20;;;;;;4959476;28;20077;-88
2022/01/04 04:05:56;;;;;;;72.25;44.65;;;77.20;2227.20;;;;;;4959341;28;20121;-88
2022/01/04 04:08:22;;;;;;;65.03;39.10;;;77.00;2227.20;;;;;;4963251;28;20054;-85
2022/01/04 04:10:47;;;;;;;64.35;41.22;;;77.30;2227.20;;;;;;4983260;28;20022;-88
2022/01/04 04:13:13;;;;;;;59.17;36.58;;;77.10;2227.20;;;;;;4961274;28;20079;-87
2022/01/04 04:15:40;;;;;;;68.95;42.97;;;77.20;2227.20;;;;;;4956441;29;20055;-87
2022/01/04 04:18:07;;;;;;;68.72;41.58;;;77.10;2227.20;;;;;;4956398;29;20038;-86
2022/01/04 04:20:34;;;;;;;82.00;49.38;;;77.30;2227.20;;;;;;4940122;29;20058;-87
2022/01/04 04:23:00;;;;;;;88.38;56.38;;;77.30;2227.20;;;;;;4955530;28;20518;-88
2022/01/04 04:25:26;;;;;;;68.80;44.47;;;77.10;2227.20;;;;;;4955917;29;20059;-86
2022/01/04 04:27:52;;;;;;;72.65;44.47;;;77.10;2227.20;;;;;;4956781;29;20059;-86
2022/01/04 04:30:17;;;;;;;67.00;44.30;;;77.20;2227.20;;;;;;4939704;29;20076;-86
2022/01/04 04:32:43;;;;;;;70.32;41.50;;;77.00;2227.20;;;;;;4955766;29;20034;-86
2022/01/04 04:35:09;;;;;;;64.28;37.40;;;77.20;2227.20;;;;;;4955842;29;20158;-87
2022/01/04 04:37:35;;;;;;;59.55;37.25;;;77.20;2227.20;;;;;;4939569;29;20105;-87
2022/01/04 04:40:01;;;;;;;66.55;40.05;;;77.20;2227.20;;;;;;4955823;29;20031;-87
2022/01/04 04:42:26;;;;;;;74.13;44.03;;;77.30;2227.20;;;;;;4955761;29;20024;-86
2022/01/04 04:44:52;;;;;;;64.53;40.95;;;77.00;2227.20;;;;;;4955738;29;20023;-86
2022/01/04 04:47:18;;;;;;;51.35;35.70;;;77.20;2227.20;;;;;;4955455;29;20023;-86
2022/01/04 04:49:44;;;;;;;71.35;47.58;;;77.20;2227.20;;;;;;4939519;29;20020;-86
2022/01/04 04:52:11;;;;;;;93.93;56.72;;;77.40;2227.20;;;;;;4935984;29;20047;-87
2022/01/04 04:54:37;;;;;;;88.70;51.65;;;77.20;2227.20;;;;;;4935990;29;20487;-86
2022/01/04 04:57:03;;;;;;;83.25;49.15;;;77.20;2227.20;;;;;;4935988;29;20019;-88
2022/01/04 04:59:29;;;;;;;87.60;50.75;;;77.40;2227.20;;;;;;4936423;29;20027;-86
2022/01/04 05:01:55;;;;;;;98.13;63.58;;;77.20;2227.20;;;;;;4920432;29;20419;-89
2022/01/04 05:04:20;;;;;;;108.03;71.40;;;77.30;2227.20;;;;;;4936040;29;20611;-86
2022/01/04 05:06:46;;;;;;;123.38;76.53;;;77.40;2227.20;;;;;;4936427;29;20028;-87
2022/01/04 05:09:12;;;;;;;120.38;75.75;;;77.50;2227.20;;;;;;4936387;29;20054;-87
2022/01/04 05:11:38;;;;;;;109.25;70.90;;;77.40;2227.20;;;;;;4935844;29;20076;-87
2022/01/04 05:14:04;;;;;;;92.50;59.55;;;77.20;2227.20;;;;;;4936353;29;20031;-87
2022/01/04 05:16:30;;;;;;;104.32;65.82;;;77.20;2227.20;;;;;;4936291;29;20426;-87
2022/01/04 05:18:55;;;;;;;107.03;64.18;;;77.20;2227.20;;;;;;4936385;29;20494;-87
2022/01/04 05:21:21;;;;;;;99.10;63.42;;;77.00;2227.20;;;;;;4936249;29;20123;-87
2022/01/04 05:23:47;;;;;;;104.45;61.47;;;77.00;2227.20;;;;;;4936161;29;20024;-89
2022/01/04 05:26:13;;;;;;;141.45;80.95;;;76.90;2227.20;;;;;;4919827;29;20023;-88
2022/01/04 05:28:42;;;;;;;216.80;113.35;;;76.80;2227.20;;;;;;4936098;29;20028;-88
2022/01/04 05:31:08;;;;;;;155.73;88.60;;;77.00;2227.20;;;;;;4920414;29;20052;-88
2022/01/04 05:33:33;;;;;;;122.63;75.53;;;77.20;2227.20;;;;;;4937723;29;20035;-88
2022/01/04 05:36:00;;;;;;;103.60;68.60;;;77.10;2227.20;;;;;;4939940;29;20428;-88
2022/01/04 05:38:26;;;;;;;135.05;83.22;;;77.00;2227.20;;;;;;4939677;29;20023;-88
2022/01/04 05:40:51;;;;;;;106.72;68.88;;;77.20;2227.20;;;;;;4940810;29;20149;-88
2022/01/04 05:43:17;;;;;;;113.45;73.25;;;77.40;2227.20;;;;;;4939761;29;20059;-90
2022/01/04 05:45:43;;;;;;;86.05;54.70;;;77.30;2227.20;;;;;;4939676;29;20031;-88
2022/01/04 05:48:09;;;;;;;122.05;78.57;;;77.40;2227.20;;;;;;4939549;29;20456;-87
2022/01/04 05:50:35;;;;;;;139.38;98.25;;;77.30;2227.20;;;;;;4939637;29;20028;-87
2022/01/04 05:53:01;;;;;;;138.32;89.78;;;77.20;2227.20;;;;;;4923743;29;20456;-87
2022/01/04 05:55:26;;;;;;;115.07;70.80;;;77.30;2227.20;;;;;;4939653;29;20115;-89
2022/01/04 05:57:52;;;;;;;104.95;65.45;;;77.30;2227.20;;;;;;4939353;29;20034;-86
2022/01/04 06:00:18;;;;;;;103.07;59.53;;;77.10;2227.20;;;;;;4939409;29;20038;-87
2022/01/04 06:02:44;;;;;;;143.40;87.10;;;77.00;2227.20;;;;;;4939609;29;20026;-87
2022/01/04 06:05:10;;;;;;;127.75;82.43;;;77.20;2227.20;;;;;;4939364;29;20028;-88
2022/01/04 06:07:36;;;;;;;166.57;95.40;;;77.30;2227.20;;;;;;4923260;29;20031;-89
2022/01/04 06:10:03;;;;;;;243.95;120.15;;;77.00;2227.20;;;;;;4939188;29;20028;-88
2022/01/04 06:15:00;;;;;;;190.48;105.05;;;77.30;2227.20;;;;;;4939913;29;20024;-86
2022/01/04 06:17:31;;;;;;;146.38;88.22;;;77.50;2227.20;;;;;;4938967;29;20093;-89
2022/01/04 06:19:58;;;;;;;146.68;89.88;;;77.30;2227.20;;;;;;4939111;29;20039;-88
2022/01/04 06:22:28;;;;;;;174.85;109.95;;;77.40;2227.20;;;;;;4939010;29;20487;-88
2022/01/04 06:24:54;;;;;;;150.40;97.85;;;77.20;2227.20;;;;;;4939068;29;20028;-88
2022/01/04 06:27:21;;;;;;;165.43;103.65;;;77.30;2227.20;;;;;;4939037;29;20035;-88
2022/01/04 06:29:47;;;;;;;182.38;111.65;;;77.50;2227.20;;;;;;4938823;29;20027;-87
2022/01/04 06:32:13;;;;;;;204.48;123.00;;;77.10;2227.20;;;;;;4939948;29;20024;-89
2022/01/04 06:34:42;;;;;;;119.22;77.75;;;76.80;2227.20;;;;;;4938935;29;20024;-90
2022/01/04 06:37:09;;;;;;;105.15;65.95;;;76.90;2227.20;;;;;;4938614;29;20074;-88
2022/01/04 06:39:35;;;;;;;109.25;72.85;;;76.80;2227.20;;;;;;4938690;29;20079;-87
2022/01/04 06:42:01;;;;;;;244.60;141.05;;;76.80;2227.20;;;;;;4938375;29;20028;-88
2022/01/04 06:44:27;;;;;;;171.18;104.43;;;77.00;2227.20;;;;;;4938289;29;20024;-90
2022/01/04 06:46:53;;;;;;;119.82;77.47;;;77.00;2227.20;;;;;;4939529;29;20019;-89
2022/01/04 06:49:19;;;;;;;97.57;62.25;;;77.00;2227.20;;;;;;4938532;29;20535;-89
2022/01/04 06:51:47;;;;;;;100.03;64.28;;;77.20;2227.20;;;;;;4938363;29;20038;-87
2022/01/04 06:54:14;;;;;;;137.25;86.32;;;76.80;2227.20;;;;;;4938330;29;20020;-89
2022/01/04 06:56:40;;;;;;;117.13;77.93;;;76.80;2227.20;;;;;;4938410;29;20047;-88
2022/01/04 06:59:07;;;;;;;126.43;82.43;;;77.00;2227.20;;;;;;4938393;29;20031;-88
2022/01/04 07:01:34;;;;;;;150.93;102.50;;;77.00;2227.20;;;;;;4938377;29;20055;-89
2022/01/04 07:04:00;;;;;;;146.75;91.88;;;77.00;2227.20;;;;;;4938466;29;20027;-87
2022/01/04 07:06:26;;;;;;;176.38;103.60;;;77.20;2227.20;;;;;;4938546;29;20039;-87
2022/01/04 07:08:52;;;;;;;197.38;112.25;;;77.30;2227.20;;;;;;4938441;29;20066;-90
2022/01/04 07:11:18;;;;;;;149.93;93.70;;;77.30;2227.20;;;;;;4938733;29;20588;-88
2022/01/04 07:13:44;;;;;;;124.55;83.70;;;77.50;2227.20;;;;;;4941349;29;20027;-89
2022/01/04 07:16:10;;;;;;;116.20;76.32;;;77.60;2227.20;;;;;;4941158;29;20035;-87
2022/01/04 07:18:36;;;;;;;123.95;80.57;;;102.40;2227.20;;;;;;4941111;29;20539;-87
2022/01/04 07:21:03;;;;;;;102.80;69.50;;;77.50;2227.20;;;;;;4941333;29;20027;-88
2022/01/04 07:23:29;;;;;;;149.75;99.85;;;77.60;2227.20;;;;;;4941103;29;20023;-87
2022/01/04 07:25:55;;;;;;;160.48;106.45;;;102.40;2227.20;;;;;;4958033;29;20098;-88
2022/01/04 07:28:24;;;;;;;174.35;116.45;;;102.50;2227.20;;;;;;4941067;29;20019;-89
2022/01/04 07:30:50;;;;;;;195.80;122.90;;;102.60;2227.20;;;;;;4940852;29;20031;-87
2022/01/04 07:33:17;;;;;;;185.73;123.82;;;102.40;2227.20;;;;;;4940955;29;20032;-87
2022/01/04 07:35:44;;;;;;;231.27;145.45;;;102.40;2227.20;;;;;;4941272;29;20030;-87
2022/01/04 07:38:10;;;;;;;256.02;160.65;;;77.70;2227.20;;;;;;4940688;29;20023;-89
2022/01/04 07:40:36;;;;;;;232.15;157.50;;;102.40;2227.20;;;;;;4940791;29;20031;-87
2022/01/04 07:43:02;;;;;;;251.02;174.32;;;102.50;2227.20;;;;;;4940717;29;20167;-88
2022/01/04 07:45:30;;;;;;;253.57;168.52;;;102.40;2227.20;;;;;;4940840;29;20019;-87
2022/01/04 07:47:57;;;;;;;189.73;126.50;;;102.40;2227.20;;;;;;4940569;29;20026;-89
2022/01/04 07:50:23;;;;;;;179.65;115.70;;;77.50;2227.20;;;;;;4940504;29;20031;-87
2022/01/04 07:52:49;;;;;;;165.70;113.45;;;77.60;2227.20;;;;;;4940400;29;20027;-87
2022/01/04 07:55:15;;;;;;;156.95;107.90;;;77.60;2227.20;;;;;;4963369;28;20079;-87
2022/01/04 07:57:43;;;;;;;163.95;112.18;;;77.30;2227.20;;;;;;4952619;28;20364;-87
2022/01/04 08:00:11;;;;;;;175.88;116.82;;;77.60;2227.20;;;;;;4941696;29;20027;-91
2022/01/04 08:02:38;;;;;;;170.32;113.63;;;77.60;2227.20;;;;;;4942156;29;20455;-87
2022/01/04 08:05:05;;;;;;;143.07;96.93;;;77.60;2227.20;;;;;;4940636;29;20034;-87
2022/01/04 08:07:30;;;;;;;160.65;102.28;;;77.60;2227.20;;;;;;4940224;29;20075;-86
2022/01/04 08:09:56;;;;;;;129.23;88.50;;;102.40;2227.20;;;;;;4940341;29;20039;-89
2022/01/04 08:12:22;;;;;;;123.70;77.43;;;102.60;2227.20;;;;;;4939694;29;20043;-86
2022/01/04 08:14:48;;;;;;;116.68;73.68;;;102.60;2227.20;;;;;;4940129;29;20023;-88
2022/01/04 08:17:14;;;;;;;134.15;88.20;;;102.70;2227.20;;;;;;4940188;29;20086;-88
2022/01/04 08:19:40;;;;;;;142.15;94.43;;;102.80;2227.20;;;;;;4940013;29;20046;-88
2022/01/04 08:22:06;;;;;;;135.13;91.72;;;102.80;2227.20;;;;;;4939975;29;20024;-86
2022/01/04 08:24:32;;;;;;;154.50;105.00;;;102.90;2227.20;;;;;;4940117;29;20050;-86
2022/01/04 08:26:58;;;;;;;168.48;115.20;;;103.00;2227.20;;;;;;4940047;29;20023;-86
2022/01/04 08:29:24;;;;;;;199.50;131.65;;;102.90;2227.20;;;;;;4940001;29;20387;-86
2022/01/04 08:31:50;;;;;;;134.70;93.10;;;102.80;2227.20;;;;;;4939856;29;20113;-88
2022/01/04 08:34:16;;;;;;;115.43;80.82;;;102.70;2227.20;;;;;;4939903;29;20050;-88
2022/01/04 08:36:42;;;;;;;118.85;80.43;;;102.80;2227.20;;;;;;4939977;29;20023;-87
2022/01/04 08:39:14;;;;;;;147.05;98.63;;;102.90;2227.20;;;;;;4939897;29;20494;-87
2022/01/04 08:41:50;;;;;;;74.47;52.85;;;102.90;2227.20;;;;;;4939839;29;20056;-86
2022/01/04 08:44:16;;;;;;;76.50;52.97;;;102.80;2227.20;;;;;;4939820;29;20042;-89
2022/01/04 08:46:42;;;;;;;88.03;56.08;;;103.00;2227.20;;;;;;4939873;29;20019;-86
2022/01/04 08:49:08;;;;;;;74.63;50.67;;;103.00;2227.20;;;;;;4939857;29;20411;-87
2022/01/04 08:51:37;;;;;;;73.25;50.15;;;103.10;2227.20;;;;;;4939656;29;20031;-89
2022/01/04 08:54:04;;;;;;;66.20;46.20;;;103.20;2227.20;;;;;;4939877;29;20130;-88
2022/01/04 08:56:30;;;;;;;59.90;43.17;;;103.30;2227.20;;;;;;4939493;29;20035;-87
2022/01/04 08:58:56;;;;;;;60.22;45.83;;;128.00;2252.80;;;;;;4939548;29;20102;-88
2022/01/04 09:01:22;;;;;;;70.60;49.55;;;128.00;2252.80;;;;;;4956790;29;20444;-89
2022/01/04 09:03:48;;;;;;;88.45;59.42;;;128.30;2252.80;;;;;;4939547;29;20355;-88
2022/01/04 09:06:15;;;;;;;76.65;55.80;;;128.40;2252.80;;;;;;4939745;29;20023;-86
2022/01/04 09:08:44;;;;;;;92.07;64.03;;;128.40;2252.80;;;;;;4958429;28;20110;-85
2022/01/04 09:11:10;;;;;;;105.05;61.95;;;128.40;2252.80;;;;;;4943289;29;20032;-87
2022/01/04 09:13:43;;;;;;;82.65;57.58;;;128.60;2252.80;;;;;;4943423;29;20050;-86
2022/01/04 09:18:45;;;;;;;100.72;69.82;;;128.90;2252.80;;;;;;4960419;29;20587;-86
2022/01/04 09:21:14;;;;;;;92.68;66.03;;;153.60;2252.80;;;;;;4943226;29;20031;-85
2022/01/04 09:23:41;;;;;;;115.70;83.40;;;153.70;2252.80;;;;;;4943071;29;20027;-85
2022/01/04 09:26:07;;;;;;;114.97;80.15;;;153.90;2252.80;;;;;;4943163;29;20545;-88
2022/01/04 09:28:33;;;;;;;120.28;87.53;;;154.00;2252.80;;;;;;4943111;29;20023;-87
2022/01/04 09:30:59;;;;;;;135.75;96.03;;;154.10;2252.80;;;;;;4942902;29;20039;-87
2022/01/04 09:33:25;;;;;;;110.22;81.13;;;154.30;2252.80;;;;;;4943206;29;20148;-84
2022/01/04 09:35:51;;;;;;;133.63;101.68;;;154.50;2252.80;;;;;;4942785;29;20056;-86
2022/01/04 09:38:18;;;;;;;152.02;102.18;;;154.50;2252.80;;;;;;4942744;29;20073;-86
2022/01/04 09:40:44;;;;;;;157.73;114.75;;;179.30;2252.80;;;;;;4942829;29;20035;-85
2022/01/04 09:43:10;;;;;;;175.27;126.68;;;179.50;2252.80;;;;;;4942637;29;20455;-83
2022/01/04 09:45:36;;;;;;;180.85;129.65;;;179.60;2252.80;;;;;;4959501;29;20034;-84
2022/01/04 09:48:03;;;;;;;171.55;124.03;;;179.70;2252.80;;;;;;4942394;29;20034;-81
2022/01/04 09:50:31;;;;;;;175.77;125.95;;;179.90;2252.80;;;;;;4942747;29;20058;-88
2022/01/04 09:52:58;;;;;;;208.30;151.95;;;180.00;2252.80;;;;;;4942464;29;20031;-86
2022/01/04 09:55:24;;;;;;;208.70;149.95;;;180.10;2252.80;;;;;;4942418;29;20418;-87
2022/01/04 09:57:50;;;;;;;219.20;155.82;;;204.90;2252.80;;;;;;4942463;29;20027;-87
2022/01/04 10:00:17;;;;;;;226.88;166.40;;;204.90;2252.80;;;;;;4959602;29;20085;-88
2022/01/04 10:02:52;;;;;;;221.48;157.88;;;205.10;2252.80;;;;;;4942244;29;20406;-87
2022/01/04 10:05:20;;;;;;;216.20;156.63;;;205.10;2252.80;;;;;;4942174;29;20027;-85
2022/01/04 10:07:47;;;;;;;183.27;134.07;;;205.30;2252.80;;;;;;4942111;29;20133;-87
2022/01/04 10:10:16;;;;;;;218.45;163.07;;;205.40;2252.80;;;;;;4938705;29;20027;-87
2022/01/04 10:12:59;;;;;;;194.23;136.45;;;205.50;2252.80;;;;;;4936512;29;20087;-87
2022/01/04 10:15:49;;;;;;;223.55;159.68;;;205.60;2252.80;;;;;;4920014;29;20038;-87
2022/01/04 10:18:16;;;;;;;191.95;147.50;;;205.60;2252.80;;;;;;4923845;29;20032;-88
2022/01/04 10:21:02;;;;;;;199.45;151.57;;;205.70;2252.80;;;;;;4925036;29;20016;-86
2022/01/04 10:23:45;;;;;;;156.35;108.25;;;230.50;2252.80;;;;;;4948872;29;20024;-87
2022/01/04 10:26:15;;;;;;;;;;;230.80;2252.80;;;;;;4924820;29;20536;-87
2022/01/04 10:29:20;;;;;;;145.55;101.88;;;230.90;2252.80;;;;;;4924051;29;19909;-88
2022/01/04 10:31:47;;;;;;;190.20;137.18;;;231.00;2252.80;;;;;;4918459;29;20047;-86
2022/01/04 10:34:12;;;;;;;111.18;83.25;;;231.20;2252.80;;;;;;4938054;29;20035;-82
2022/01/04 10:36:39;;;;;;;146.88;105.60;;;231.30;2252.80;;;;;;4920587;29;20032;-84
2022/01/04 10:39:09;;;;;;;158.20;110.90;;;256.10;2252.80;;;;;;4902942;29;20024;-83
2022/01/04 10:41:35;;;;;;;129.82;90.78;;;256.30;2252.80;;;;;;4902697;29;20460;-82
2022/01/04 10:44:09;;;;;;;83.55;63.05;;;256.60;2252.80;;;;;;4924591;29;20524;-83
2022/01/04 10:46:44;;;;;;;70.40;52.28;;;256.90;2252.80;;;;;;4928322;29;20356;-85
2022/01/04 10:49:24;;;;;;;49.53;38.80;;;281.80;2278.40;;;;;;4920349;29;20107;-82
2022/01/04 10:52:12;;;;;;;46.65;33.92;;;282.10;2278.40;;;;;;4926741;29;20038;-78
2022/01/04 10:54:38;;;;;;;38.63;27.48;;;282.30;2278.40;;;;;;4937378;29;20029;-79
2022/01/04 10:57:09;;;;;;;25.65;19.05;;;282.40;2278.40;;;;;;4923346;29;20034;-81
2022/01/04 11:00:16;;;;;;;41.67;30.60;;;282.20;2278.40;;;;;;4921984;29;20051;-85
2022/01/04 11:06:56;;;;;;;23.80;18.10;;;307.30;2304.00;;;;;;4919622;29;20036;-83
2022/01/04 11:09:22;;;;;;;30.90;19.58;;;307.50;2304.00;;;;;;4915365;29;20087;-80
2022/01/04 11:11:48;;;;;;;27.58;18.80;;;307.60;2304.00;;;;;;4917919;29;20075;-83
2022/01/04 11:14:14;;;;;;;22.90;13.20;;;308.00;2304.00;;;;;;4918463;29;20503;-80
2022/01/04 11:16:41;;;;;;;17.60;12.85;;;332.80;2329.60;;;;;;4918100;29;20143;-84
2022/01/04 11:19:07;;;;;;;14.70;8.05;;;332.90;2329.60;;;;;;4919657;29;20092;-83
2022/01/04 11:21:41;;;;;;;13.75;10.38;;;333.20;2329.60;;;;;;4918480;29;20032;-82
2022/01/04 11:24:17;;;;;;;16.77;13.48;;;333.30;2329.60;;;;;;4918229;29;20106;-82
2022/01/04 11:26:46;;;;;;;22.13;17.88;;;333.40;2329.60;;;;;;4918127;29;20128;-79
2022/01/04 11:29:16;;;;;;;21.80;14.90;;;333.60;2329.60;;;;;;4917710;29;20060;-80
2022/01/04 11:31:48;;;;;;;18.70;12.65;;;358.40;2329.60;;;;;;4917789;29;20537;-80
2022/01/04 11:34:35;;;;;;;14.33;10.60;;;358.60;2329.60;;;;;;4918011;29;20028;-80
2022/01/04 11:37:02;;;;;;;16.73;12.27;;;358.50;2329.60;;;;;;4919032;29;20022;-80
2022/01/04 11:39:32;;;;;;;20.58;14.00;;;358.50;2329.60;;;;;;4917971;29;20460;-80
2022/01/04 11:42:24;;;;;;;19.13;11.95;;;358.40;2329.60;;;;;;4917868;29;20076;-82
2022/01/04 11:45:02;;;;;;;18.00;12.23;;;358.40;2329.60;;;;;;4903792;29;20118;-82
2022/01/04 11:50:20;;;;;;;21.08;14.80;;;358.40;2329.60;;;;;;4918384;29;20079;-80
2022/01/04 11:56:09;;;;;;;25.77;18.58;;;358.60;2329.60;;;;;;4903787;29;20055;-80
2022/01/04 11:58:43;;;;;;;16.40;11.02;;;358.90;2329.60;;;;;;4917448;29;20024;-81
2022/01/04 12:01:15;;;;;;;21.90;14.93;;;359.20;2329.60;;;;;;4917630;29;20110;-81
2022/01/04 12:03:43;;;;;;;18.27;10.85;;;384.30;2329.60;;;;;;4917804;29;20028;-83
2022/01/04 12:07:03;;;;;;;13.70;9.88;;;384.60;2329.60;;;;;;4917133;29;20028;-81
2022/01/04 12:09:29;;;;;;;10.75;8.23;;;384.90;2329.60;;;;;;4826411;29;20018;-79
2022/01/04 12:11:55;;;;;;;16.55;12.40;;;409.70;2329.60;;;;;;4897633;29;20039;-80
2022/01/04 12:14:27;;;;;;;12.40;10.00;;;409.90;2304.00;;;;;;4917042;29;20420;-80
2022/01/04 12:20:07;;;;;;;24.80;13.43;;;410.00;2278.40;;;;;;4857590;29;20486;-79